Time;durP1;ratioP1;P1;durP2;ratioP2;P2;SDS_P1;SDS_P2;PMS_P1;PMS_P2;Temp;Humidity;BMP_temperature;BMP_pressure;BME280_temperature;BME280_humidity;BME280_pressure;Samples;Min_cycle;Max_cycle;Signal;HPM_P1;HPM_P2
2021/09/19 00:02:14;;;;;;;;;8.50;7.25;;;;;19.90;66.97;100997.78;4937549;28;45369;-90
2021/09/19 00:04:40;;;;;;;;;9.25;9.25;;;;;19.90;66.95;100992.44;4919624;28;45493;-91
2021/09/19 00:07:05;;;;;;;;;9.00;9.00;;;;;19.95;66.99;101000.94;4937406;28;45239;-91
2021/09/19 00:09:31;;;;;;;;;12.00;9.50;;;;;19.87;66.80;100985.50;4938573;28;45265;-92
2021/09/19 00:11:56;;;;;;;;;7.50;7.50;;;;;19.94;66.88;100993.91;4918754;28;48382;-92
2021/09/19 00:14:34;;;;;;;;;10.50;10.00;;;;;19.92;66.82;100990.50;4913154;28;45247;-92
2021/09/19 00:17:01;;;;;;;;;11.75;9.00;;;;;19.93;67.24;100988.72;4926219;28;45489;-92
2021/09/19 00:20:28;;;;;;;;;11.00;8.75;;;;;19.94;67.21;100990.41;4911572;28;47176;-88
2021/09/19 00:22:39;;;;;;;;;10.25;9.75;;;;;19.87;67.22;100985.50;4864360;28;46497;-95
2021/09/19 00:25:07;;;;;;;;;10.50;8.50;;;;;19.86;67.02;100982.91;4923776;28;45694;-91
2021/09/19 00:27:33;;;;;;;;;9.00;8.00;;;;;19.83;66.99;100975.16;4923048;28;45471;-89
2021/09/19 00:29:58;;;;;;;;;8.50;8.00;;;;;19.82;66.99;100976.97;4931016;28;45430;-87
2021/09/19 00:32:25;;;;;;;;;10.00;10.00;;;;;19.82;67.00;100973.44;4918298;28;46473;-86
2021/09/19 00:34:50;;;;;;;;;8.50;6.75;;;;;19.75;67.19;100971.19;4940460;28;45537;-85
2021/09/19 00:37:15;;;;;;;;;7.75;6.75;;;;;19.81;67.00;100975.25;4927699;28;45506;-85
2021/09/19 00:39:41;;;;;;;;;8.00;8.00;;;;;19.76;67.04;100964.03;4922491;28;46142;-84
2021/09/19 00:42:06;;;;;;;;;10.00;7.00;;;;;19.76;66.85;100967.56;4938062;28;46427;-85
2021/09/19 00:44:32;;;;;;;;;10.00;8.00;;;;;19.77;66.98;100971.94;4939080;28;45515;-84
2021/09/19 00:46:57;;;;;;;;;10.00;10.00;;;;;19.77;67.05;100974.63;4943077;28;45302;-85
2021/09/19 00:49:24;;;;;;;;;7.00;7.00;;;;;19.81;66.87;100971.72;4925603;28;45311;-85
2021/09/19 00:51:50;;;;;;;;;3.75;3.75;;;;;19.79;67.04;100970.03;4929636;28;46586;-84
2021/09/19 00:54:16;;;;;;;;;11.25;9.00;;;;;19.73;67.15;100954.44;4923671;28;45249;-89
2021/09/19 00:56:50;;;;;;;;;8.00;8.00;;;;;19.79;66.89;100964.69;4930446;28;45402;-90
2021/09/19 00:59:19;;;;;;;;;8.25;8.00;;;;;19.71;67.17;100955.50;4931112;28;46538;-85
2021/09/19 01:01:45;;;;;;;;;8.25;7.75;;;;;19.72;67.13;100957.22;4934093;28;46444;-85
2021/09/19 01:04:12;;;;;;;;;7.50;6.25;;;;;19.69;67.11;100955.59;4923156;28;45434;-90
2021/09/19 01:06:38;;;;;;;;;7.75;7.25;;;;;19.70;67.33;100954.66;4913498;28;45293;-88
2021/09/19 01:09:03;;;;;;;;;7.25;7.25;;;;;19.66;66.79;100954.00;4923329;28;45250;-87
2021/09/19 01:11:47;;;;;;;;;8.75;8.00;;;;;19.67;66.99;100963.72;4930480;28;47411;-90
2021/09/19 01:14:34;;;;;;;;;;;;;;;;;;;;;
2021/09/19 01:16:59;;;;;;;;;9.00;8.50;;;;;19.65;66.81;100962.13;4922677;28;67447;-88
2021/09/19 01:19:58;;;;;;;;;8.50;7.00;;;;;19.63;66.90;100958.72;4923081;28;45168;-90
2021/09/19 01:23:11;;;;;;;;;6.00;5.00;;;;;19.68;67.38;100964.56;4911990;28;47877;-89
2021/09/19 01:29:14;;;;;;;;;11.00;7.00;;;;;19.60;67.12;100957.09;4906028;28;45492;-89
2021/09/19 01:31:59;;;;;;;;;8.50;6.50;;;;;19.55;67.10;100945.91;4926245;28;45348;-87
2021/09/19 02:00:52;;;;;;;;;8.25;8.25;;;;;19.50;68.16;100956.88;5329627;23;45921;-96
2021/09/19 02:03:17;;;;;;;;;9.00;8.25;;;;;19.44;67.86;100946.63;4922753;28;45359;-88
2021/09/19 02:05:43;;;;;;;;;9.00;9.00;;;;;19.42;68.52;100946.72;4922371;28;45330;-87
2021/09/19 02:08:08;;;;;;;;;12.00;7.25;;;;;19.41;68.09;100938.84;4922197;28;45359;-87
2021/09/19 02:10:34;;;;;;;;;9.25;8.25;;;;;19.40;68.50;100937.97;4939889;28;45350;-88
2021/09/19 02:12:59;;;;;;;;;11.50;9.25;;;;;19.39;68.37;100943.41;4922673;28;45294;-84
2021/09/19 02:15:35;;;;;;;;;8.00;8.00;;;;;19.40;68.75;100943.31;4904867;28;46407;-90
2021/09/19 02:18:30;;;;;;;;;10.25;8.50;;;;;19.33;68.31;100932.19;4922316;28;45420;-90
2021/09/19 02:21:19;;;;;;;;;;;;;;;;;;;;;
2021/09/19 02:23:53;;;;;;;;;7.50;7.00;;;;;19.34;68.62;100925.91;4921550;28;68941;-90
2021/09/19 02:26:19;;;;;;;;;11.00;9.25;;;;;19.34;68.45;100925.91;4922771;28;45216;-85
2021/09/19 02:28:45;;;;;;;;;12.50;9.00;;;;;19.33;68.29;100929.53;4944483;28;45503;-86
2021/09/19 02:31:10;;;;;;;;;10.75;9.75;;;;;19.38;68.62;100939.03;4944994;28;45430;-85
2021/09/19 02:33:36;;;;;;;;;10.00;8.25;;;;;19.36;68.74;100933.81;4940970;28;45860;-86
2021/09/19 02:36:02;;;;;;;;;12.00;11.25;;;;;19.24;69.00;100924.81;4954264;28;45353;-86
2021/09/19 02:38:28;;;;;;;;;13.75;8.25;;;;;19.21;68.98;100922.38;4960670;28;45467;-86
2021/09/19 02:40:53;;;;;;;;;9.75;9.50;;;;;19.22;68.91;100924.94;4959842;28;45282;-87
2021/09/19 02:43:22;;;;;;;;;7.00;7.00;;;;;19.22;68.76;100924.09;4958655;28;45238;-87
2021/09/19 02:48:46;;;;;;;;;9.25;8.50;;;;;19.18;68.75;100912.78;4874065;28;46829;-83
2021/09/19 02:51:11;;;;;;;;;11.00;8.75;;;;;19.16;69.48;100911.97;4957384;28;45486;-82
2021/09/19 02:53:39;;;;;;;;;12.50;12.50;;;;;19.09;68.84;100894.69;4941488;28;45418;-84
2021/09/19 02:59:29;;;;;;;;;10.00;9.50;;;;;19.11;69.38;100909.63;4861850;28;45619;-86
2021/09/19 03:01:57;;;;;;;;;9.50;8.25;;;;;19.11;68.89;100898.97;4941491;28;45370;-87
2021/09/19 03:04:22;;;;;;;;;11.25;10.00;;;;;19.10;69.16;100904.41;4945649;28;45233;-84
2021/09/19 03:06:47;;;;;;;;;11.50;10.50;;;;;19.07;69.35;100902.81;4960178;28;45480;-85
2021/09/19 03:09:13;;;;;;;;;10.25;9.50;;;;;19.09;69.19;100908.03;4959417;28;45286;-85
2021/09/19 03:11:38;;;;;;;;;13.50;11.25;;;;;19.04;68.99;100897.69;4953430;28;45217;-85
2021/09/19 03:28:08;;;;;;;;;;;;;;;;;;;;;
2021/09/19 03:37:24;;;;;;;;;12.75;12.00;;;;;18.93;70.09;100893.09;4815745;29;45453;-85
2021/09/19 03:39:50;;;;;;;;;10.00;10.00;;;;;18.96;69.85;100898.22;4814256;29;45454;-85
2021/09/19 03:42:15;;;;;;;;;11.75;10.50;;;;;18.93;70.33;100894.88;4926346;28;45264;-84
2021/09/19 03:44:40;;;;;;;;;12.00;12.00;;;;;19.00;70.09;100904.19;4934509;28;48151;-85
2021/09/19 03:47:06;;;;;;;;;12.50;11.25;;;;;18.93;69.90;100892.22;4941699;28;45346;-85
2021/09/19 04:03:59;;;;;;;;;10.25;10.25;;;;;18.88;70.42;100904.03;4956044;28;46683;-88
2021/09/19 04:06:26;;;;;;;;;15.75;14.50;;;;;18.78;70.37;100898.47;4927018;28;45843;-83
2021/09/19 04:09:01;;;;;;;;;10.75;10.75;;;;;18.87;69.94;100904.97;4943653;28;45321;-93
2021/09/19 04:11:27;;;;;;;;;15.50;12.75;;;;;18.83;70.14;100906.16;4933493;28;45274;-85
2021/09/19 04:13:55;;;;;;;;;16.50;13.50;;;;;18.90;69.77;100919.91;4962780;28;45244;-88
2021/09/19 04:16:26;;;;;;;;;17.25;15.75;;;;;18.85;69.89;100912.22;4947826;28;45369;-89
2021/09/19 04:19:18;;;;;;;;;14.25;14.25;;;;;18.95;69.43;100922.25;4950845;28;45557;-89
2021/09/19 04:22:17;;;;;;;;;;;;;;;;;;;;;
2021/09/19 04:24:42;;;;;;;;;16.75;15.00;;;;;18.82;69.28;100911.56;4951786;28;68839;-85
2021/09/19 04:27:08;;;;;;;;;10.75;9.00;;;;;18.73;69.25;100908.56;4933871;28;47281;-84
2021/09/19 04:29:37;;;;;;;;;14.75;13.25;;;;;18.72;69.08;100916.63;4930843;28;47065;-86
2021/09/19 04:32:02;;;;;;;;;16.25;14.50;;;;;18.75;68.92;100921.75;4962546;28;45673;-86
2021/09/19 04:34:28;;;;;;;;;14.75;12.00;;;;;18.74;68.78;100928.88;4932760;28;45640;-81
2021/09/19 04:36:53;;;;;;;;;14.75;13.75;;;;;18.76;68.20;100935.00;4925821;28;45688;-81
2021/09/19 04:39:19;;;;;;;;;16.25;15.00;;;;;18.70;67.44;100931.84;4927488;28;47434;-81
2021/09/19 04:41:44;;;;;;;;;12.00;11.25;;;;;18.61;67.21;100928.84;4962541;28;45353;-87
2021/09/19 04:44:18;;;;;;;;;14.00;14.00;;;;;18.58;67.05;100937.03;4952614;28;45430;-89
2021/09/19 04:46:51;;;;;;;;;14.25;11.00;;;;;18.57;66.99;100945.94;4942861;28;45400;-88
2021/09/19 04:49:39;;;;;;;;;12.00;12.00;;;;;18.56;67.20;100949.56;4943459;28;46401;-92
2021/09/19 04:52:04;;;;;;;;;14.00;12.50;;;;;18.46;66.88;100935.16;4943870;28;45358;-89
2021/09/19 04:54:30;;;;;;;;;15.00;12.00;;;;;18.41;66.48;100928.31;4950188;28;45276;-89
2021/09/19 04:57:03;;;;;;;;;16.25;13.75;;;;;18.46;66.64;100937.81;4949521;28;45255;-91
2021/09/19 04:59:52;;;;;;;;;16.00;14.50;;;;;18.32;66.39;100919.09;4934361;28;47074;-90
2021/09/19 05:09:21;;;;;;;;;14.75;12.25;;;;;18.30;66.00;100936.09;4934322;28;45555;-87
2021/09/19 05:11:47;;;;;;;;;8.00;8.00;;;;;18.22;65.52;100925.97;4942892;28;45264;-87
2021/09/19 05:14:12;;;;;;;;;14.25;11.00;;;;;18.22;65.61;100929.47;4952987;28;45320;-84
2021/09/19 05:16:38;;;;;;;;;14.25;13.25;;;;;18.22;65.45;100936.59;4927264;28;45331;-83
2021/09/19 05:19:04;;;;;;;;;15.50;12.75;;;;;18.16;65.86;100936.94;4924882;28;46987;-83
2021/09/19 05:21:30;;;;;;;;;14.25;13.75;;;;;18.08;65.55;100934.75;4949945;28;45501;-84
2021/09/19 05:23:56;;;;;;;;;17.25;15.25;;;;;18.02;65.51;100929.81;4946509;28;45362;-84
2021/09/19 05:26:21;;;;;;;;;15.00;12.50;;;;;18.00;65.70;100936.09;4944429;28;45221;-84
2021/09/19 05:28:47;;;;;;;;;18.25;12.75;;;;;18.00;66.16;100932.59;4944872;28;45418;-82
2021/09/19 05:31:15;;;;;;;;;15.50;14.50;;;;;17.99;65.47;100942.38;4942344;28;45595;-82
2021/09/19 05:33:41;;;;;;;;;14.25;14.25;;;;;17.97;65.84;100936.28;4942166;28;45879;-83
2021/09/19 05:36:36;;;;;;;;;13.00;11.75;;;;;17.95;65.67;100940.00;4942179;28;45259;-89
2021/09/19 05:39:01;;;;;;;;;18.75;16.00;;;;;17.96;65.39;100950.53;4933572;28;45256;-91
2021/09/19 05:41:27;;;;;;;;;15.25;15.25;;;;;17.94;65.90;100954.22;4947541;28;46774;-89
2021/09/19 05:43:52;;;;;;;;;14.50;14.25;;;;;17.99;66.02;100962.78;4941941;28;45524;-84
2021/09/19 05:46:18;;;;;;;;;15.25;14.75;;;;;17.92;66.08;100957.00;4937261;28;45679;-84
2021/09/19 05:48:44;;;;;;;;;17.75;14.75;;;;;17.93;65.66;100952.50;4951802;28;45299;-88
2021/09/19 05:51:10;;;;;;;;;15.25;13.50;;;;;17.92;65.59;100958.78;4954435;28;45438;-87
2021/09/19 05:53:36;;;;;;;;;15.25;14.00;;;;;17.94;65.55;100964.88;4941865;28;45300;-89
2021/09/19 06:02:47;;;;;;;;;17.50;13.50;;;;;17.83;65.70;100982.31;4877756;29;45462;-89
2021/09/19 06:05:13;;;;;;;;;15.50;13.25;;;;;17.74;65.56;100973.09;4942792;28;45505;-86
2021/09/19 06:07:39;;;;;;;;;15.25;14.50;;;;;17.72;65.54;100972.34;4929498;28;45357;-86
2021/09/19 06:10:05;;;;;;;;;15.25;15.25;;;;;17.74;65.73;100973.09;4937439;28;45342;-86
2021/09/19 06:12:31;;;;;;;;;13.75;13.75;;;;;17.76;65.49;100980.97;4944038;28;45427;-84
2021/09/19 06:14:57;;;;;;;;;14.00;11.50;;;;;17.69;65.29;100969.84;4941869;28;45231;-83
2021/09/19 06:17:22;;;;;;;;;13.00;12.00;;;;;17.70;65.33;100976.91;4932010;28;45240;-83
2021/09/19 06:19:49;;;;;;;;;16.00;13.75;;;;;17.69;65.45;100983.16;4957520;28;45569;-82
2021/09/19 06:22:14;;;;;;;;;16.50;15.00;;;;;17.70;65.91;100984.00;4960785;28;45317;-84
2021/09/19 06:24:40;;;;;;;;;15.25;14.75;;;;;17.67;66.00;100974.41;4938115;28;45541;-85
2021/09/19 06:27:06;;;;;;;;;14.50;13.50;;;;;17.74;65.76;100985.53;4942114;28;45435;-85
2021/09/19 06:29:31;;;;;;;;;15.25;13.50;;;;;17.75;65.25;100982.78;4957983;28;45493;-88
2021/09/19 06:31:57;;;;;;;;;15.00;13.75;;;;;17.83;64.90;101000.09;4960295;28;45455;-87
2021/09/19 06:34:23;;;;;;;;;14.25;14.25;;;;;17.76;65.68;100983.63;4957715;28;45699;-85
2021/09/19 06:36:49;;;;;;;;;12.50;12.50;;;;;17.81;65.56;100986.00;4941673;28;45305;-84
2021/09/19 06:39:14;;;;;;;;;14.00;14.00;;;;;17.77;65.35;100986.22;4941407;28;45355;-85
2021/09/19 06:41:40;;;;;;;;;16.25;14.50;;;;;17.76;65.02;100988.94;4941460;28;45412;-86
2021/09/19 06:44:05;;;;;;;;;16.75;13.50;;;;;17.75;65.09;100987.25;4941257;28;45178;-85
2021/09/19 06:46:33;;;;;;;;;16.75;15.75;;;;;17.74;65.22;100986.41;4957700;28;45253;-87
2021/09/19 06:49:06;;;;;;;;;13.75;12.50;;;;;17.74;64.90;100981.06;4949344;28;45307;-86
2021/09/19 06:51:32;;;;;;;;;14.00;13.00;;;;;17.75;65.15;100996.06;4960301;28;45495;-85
2021/09/19 06:56:52;;;;;;;;;13.00;12.25;;;;;17.91;65.32;100997.81;4911003;28;45236;-85
2021/09/19 07:02:39;;;;;;;;;13.25;12.25;;;;;18.08;64.34;101012.75;4942892;28;45348;-84
2021/09/19 07:05:05;;;;;;;;;13.25;13.25;;;;;18.09;64.81;101014.47;4950976;28;45385;-82
2021/09/19 07:07:31;;;;;;;;;14.50;11.75;;;;;18.13;64.92;101008.94;4962752;28;45159;-82
2021/09/19 07:09:56;;;;;;;;;12.00;11.75;;;;;18.19;64.93;101013.91;4940879;28;46113;-82
2021/09/19 07:12:21;;;;;;;;;14.25;12.50;;;;;18.32;64.75;101019.38;4958648;28;46568;-80
2021/09/19 07:15:13;;;;;;;;;12.00;10.25;;;;;18.36;65.18;100998.72;4960274;28;45203;-85
2021/09/19 07:17:38;;;;;;;;;12.50;12.50;;;;;18.46;64.09;101012.31;4946377;28;45356;-83
2021/09/19 07:20:55;;;;;;;;;;;;;;;;;;;;;
2021/09/19 07:30:17;;;;;;;;;12.00;11.50;;;;;18.70;63.05;101033.00;4723156;30;45546;-86
2021/09/19 07:32:46;;;;;;;;;16.00;12.75;;;;;18.62;62.88;101031.69;4844230;29;45631;-85
2021/09/19 07:35:11;;;;;;;;;16.00;15.00;;;;;18.63;62.92;101038.75;4934878;28;45291;-85
2021/09/19 07:37:37;;;;;;;;;16.50;15.25;;;;;18.57;62.80;101043.59;4938211;28;45333;-84
2021/09/19 07:40:05;;;;;;;;;16.75;14.25;;;;;18.49;63.34;101044.94;4945905;28;45319;-84
2021/09/19 07:42:31;;;;;;;;;11.75;10.50;;;;;18.42;62.72;101032.97;4936639;28;47196;-83
2021/09/19 07:44:57;;;;;;;;;16.75;13.50;;;;;18.39;63.06;101039.31;4940854;28;47144;-83
2021/09/19 07:47:26;;;;;;;;;15.50;14.75;;;;;18.41;63.56;101042.75;4955370;28;45574;-83
2021/09/19 07:49:52;;;;;;;;;14.50;13.25;;;;;18.52;63.82;101059.84;4957938;28;45275;-80
2021/09/19 07:52:18;;;;;;;;;11.50;11.50;;;;;18.60;63.29;101057.56;4961269;28;45750;-81
2021/09/19 07:54:44;;;;;;;;;15.25;13.50;;;;;18.67;62.84;101058.03;4955828;28;45269;-80
2021/09/19 07:57:09;;;;;;;;;11.50;10.25;;;;;18.77;62.38;101060.97;4946167;28;45269;-85
2021/09/19 07:59:36;;;;;;;;;17.00;16.00;;;;;18.80;63.09;101058.13;4933878;28;45309;-84
2021/09/19 08:02:04;;;;;;;;;14.50;14.50;;;;;18.84;62.98;101050.81;4926052;28;47394;-85
2021/09/19 08:04:29;;;;;;;;;14.00;14.00;;;;;18.94;62.99;101049.25;4943397;28;45462;-85
2021/09/19 08:06:57;;;;;;;;;12.25;11.25;;;;;19.05;62.57;101053.88;4938719;28;45492;-85
2021/09/19 08:09:25;;;;;;;;;18.50;13.25;;;;;19.16;62.22;101063.84;4936691;28;45354;-84
2021/09/19 08:11:52;;;;;;;;;15.25;14.50;;;;;19.22;61.95;101065.28;4945599;28;45541;-84
2021/09/19 08:14:18;;;;;;;;;15.75;15.25;;;;;19.20;61.43;101059.22;4943606;28;45494;-84
2021/09/19 08:16:43;;;;;;;;;19.50;15.00;;;;;19.19;61.18;101073.47;4935739;28;45488;-84
2021/09/19 08:19:09;;;;;;;;;21.25;17.75;;;;;19.12;60.87;101065.00;4942384;28;45576;-84
2021/09/19 08:21:36;;;;;;;;;22.50;16.00;;;;;19.14;61.81;101079.06;4943062;28;45466;-85
2021/09/19 08:24:07;;;;;;;;;16.25;16.25;;;;;19.08;61.51;101074.16;4953371;28;45234;-84
2021/09/19 08:26:34;;;;;;;;;15.50;13.75;;;;;19.05;61.41;101072.53;4954050;28;45332;-84
2021/09/19 08:28:59;;;;;;;;;16.25;15.25;;;;;19.05;61.28;101071.69;4962154;28;45421;-84
2021/09/19 08:31:25;;;;;;;;;19.50;18.00;;;;;19.03;61.35;101077.13;4962333;28;45604;-84
2021/09/19 08:33:50;;;;;;;;;19.00;15.75;;;;;19.03;61.35;101081.56;4943148;28;47031;-84
2021/09/19 08:36:18;;;;;;;;;16.75;16.00;;;;;19.06;61.45;101082.22;4943256;28;45287;-84
2021/09/19 08:38:43;;;;;;;;;16.00;14.25;;;;;19.09;61.58;101084.69;4943106;28;45385;-84
2021/09/19 08:41:09;;;;;;;;;16.75;15.50;;;;;19.12;61.17;101092.50;4943125;28;45307;-84
2021/09/19 08:43:34;;;;;;;;;18.50;18.00;;;;;19.15;60.36;101102.09;4943222;28;45446;-83
2021/09/19 08:46:01;;;;;;;;;17.50;15.25;;;;;19.15;60.37;101106.56;4950963;28;45177;-84
2021/09/19 08:48:28;;;;;;;;;22.50;16.00;;;;;19.16;60.46;101106.47;4961961;28;45370;-84
2021/09/19 08:50:54;;;;;;;;;15.75;14.25;;;;;19.08;60.38;101093.66;4961834;28;45493;-84
2021/09/19 08:53:21;;;;;;;;;18.25;17.25;;;;;19.10;60.90;101086.41;4962215;28;45478;-84
2021/09/19 08:55:47;;;;;;;;;15.75;14.25;;;;;19.17;61.69;101086.00;4934354;28;45528;-84
2021/09/19 08:58:13;;;;;;;;;12.00;12.00;;;;;19.25;61.45;101099.75;4959152;28;45525;-84
2021/09/19 09:01:04;;;;;;;;;13.75;11.50;;;;;19.31;61.65;101106.50;4943747;28;45362;-81
2021/09/19 09:03:30;;;;;;;;;14.75;14.25;;;;;19.35;60.66;101105.31;4951499;28;46096;-84
2021/09/19 09:05:58;;;;;;;;;20.75;16.25;;;;;19.37;60.81;101107.88;4942665;28;45370;-84
2021/09/19 09:08:26;;;;;;;;;14.75;13.25;;;;;19.39;61.01;101106.84;4945667;28;45312;-83
2021/09/19 09:10:54;;;;;;;;;17.25;15.50;;;;;19.43;61.09;101113.66;4946711;28;45467;-84
2021/09/19 09:13:31;;;;;;;;;18.00;15.25;;;;;19.47;59.77;101125.00;4938830;28;47330;-86
2021/09/19 09:16:15;;;;;;;;;17.00;13.75;;;;;19.54;60.68;101139.63;4960696;28;45248;-85
2021/09/19 09:18:57;;;;;;;;;15.75;14.00;;;;;19.54;60.93;101136.97;4948854;28;45286;-84
2021/09/19 09:21:28;;;;;;;;;16.50;14.00;;;;;19.56;60.42;101124.38;4945282;28;45454;-82
2021/09/19 09:23:58;;;;;;;;;15.50;13.75;;;;;19.53;59.81;101124.59;4942399;28;46200;-84
2021/09/19 09:26:38;;;;;;;;;24.75;18.25;;;;;19.60;60.27;101142.84;4955630;28;45321;-83
2021/09/19 09:29:03;;;;;;;;;15.00;13.75;;;;;19.57;60.61;101149.25;4959171;28;46394;-81
2021/09/19 09:31:43;;;;;;;;;14.75;14.50;;;;;19.56;61.02;101148.38;4945896;28;45258;-87
2021/09/19 09:34:18;;;;;;;;;15.75;15.75;;;;;19.59;61.24;101151.81;4958527;28;45425;-83
2021/09/19 09:36:58;;;;;;;;;15.25;15.25;;;;;19.63;61.14;101150.66;4947911;28;45302;-82
2021/09/19 09:39:38;;;;;;;;;18.25;16.50;;;;;19.59;60.67;101142.00;4937633;28;45477;-82
2021/09/19 09:42:07;;;;;;;;;16.00;14.25;;;;;19.59;60.87;101128.66;4926170;28;46022;-82
2021/09/19 09:44:34;;;;;;;;;17.75;15.00;;;;;19.67;60.95;101141.50;4959384;28;45322;-83
2021/09/19 09:47:12;;;;;;;;;16.00;15.25;;;;;19.73;60.90;101145.59;5123986;27;45371;-84
2021/09/19 09:49:41;;;;;;;;;12.25;10.75;;;;;19.74;61.23;101145.47;5098807;27;45210;-84
2021/09/19 09:52:11;;;;;;;;;18.75;18.75;;;;;19.77;60.62;101147.94;5102284;27;45271;-84
2021/09/19 09:55:11;;;;;;;;;15.00;14.25;;;;;19.81;60.13;101151.25;5105835;27;45836;-84
2021/09/19 09:57:57;;;;;;;;;15.25;13.50;;;;;19.87;60.14;101164.19;5111946;27;45584;-85
2021/09/19 10:00:23;;;;;;;;;19.00;17.25;;;;;19.77;60.08;101149.75;5098775;27;45340;-84
2021/09/19 10:02:52;;;;;;;;;15.50;15.50;;;;;19.74;60.36;101150.81;5109291;27;45475;-83
2021/09/19 10:05:19;;;;;;;;;16.50;15.50;;;;;19.85;60.26;101158.09;5095250;27;46051;-83
2021/09/19 10:07:46;;;;;;;;;17.25;17.00;;;;;19.85;60.22;101159.91;5096565;27;46076;-83
2021/09/19 10:10:16;;;;;;;;;18.50;15.50;;;;;19.89;59.93;101159.63;5096830;27;45360;-83
2021/09/19 10:12:43;;;;;;;;;14.00;12.75;;;;;19.90;59.75;101163.13;5096637;27;45188;-82
2021/09/19 10:15:09;;;;;;;;;10.75;10.00;;;;;19.91;59.84;101164.84;5107650;27;45218;-83
2021/09/19 10:17:36;;;;;;;;;18.25;17.25;;;;;19.94;59.65;101172.63;5095272;27;48172;-83
2021/09/19 10:20:04;;;;;;;;;14.25;14.25;;;;;19.95;59.79;101166.34;5095049;27;45432;-83
2021/09/19 10:22:33;;;;;;;;;15.00;14.25;;;;;19.95;59.75;101163.66;5094740;27;45326;-84
2021/09/19 10:25:01;;;;;;;;;23.25;20.00;;;;;19.96;59.74;101159.19;5096510;27;45231;-85
2021/09/19 10:27:32;;;;;;;;;15.75;15.75;;;;;20.00;59.69;101158.88;5082973;27;45424;-85
2021/09/19 10:30:00;;;;;;;;;19.50;19.25;;;;;20.03;59.05;101149.81;5096286;27;45583;-82
2021/09/19 10:32:35;;;;;;;;;16.50;14.75;;;;;20.07;60.19;101155.81;5096749;27;45398;-83
2021/09/19 10:35:00;;;;;;;;;18.00;17.00;;;;;20.13;59.54;101153.63;5096165;27;45420;-83
2021/09/19 10:38:00;;;;;;;;;22.00;17.75;;;;;20.24;59.32;101154.72;5104620;27;45884;-83
2021/09/19 10:40:39;;;;;;;;;15.50;13.50;;;;;20.28;59.78;101156.19;5085287;27;45559;-83
2021/09/19 10:43:15;;;;;;;;;13.75;13.75;;;;;20.29;59.90;101146.38;5081192;27;45211;-83
2021/09/19 10:45:49;;;;;;;;;19.00;14.50;;;;;20.30;59.12;101145.41;5091216;27;45409;-83
2021/09/19 10:48:27;;;;;;;;;13.50;11.50;;;;;20.32;59.24;101148.84;5094727;27;47555;-83
2021/09/19 10:51:12;;;;;;;;;15.25;14.75;;;;;20.29;59.14;101147.25;5094649;27;45532;-83
2021/09/19 10:53:48;;;;;;;;;19.00;16.00;;;;;20.34;58.53;101149.59;5095210;27;46438;-83
2021/09/19 10:56:13;;;;;;;;;18.50;15.25;;;;;20.38;58.55;101161.78;5095255;27;45431;-84
2021/09/19 10:58:46;;;;;;;;;15.50;14.75;;;;;20.33;58.78;101158.56;5081752;27;45424;-83
2021/09/19 11:01:15;;;;;;;;;19.50;16.25;;;;;20.37;59.10;101164.56;5082317;27;45518;-84
2021/09/19 11:03:44;;;;;;;;;15.50;13.25;;;;;20.31;58.99;101152.47;5082366;27;45294;-83
2021/09/19 11:06:28;;;;;;;;;16.25;14.50;;;;;20.32;58.79;101156.88;5081962;28;45537;-83
2021/09/19 11:08:54;;;;;;;;;19.50;15.75;;;;;20.39;58.80;101151.94;5097919;27;48128;-83
2021/09/19 11:11:22;;;;;;;;;15.25;15.25;;;;;20.38;59.19;101148.41;5082236;27;45222;-83
2021/09/19 11:13:54;;;;;;;;;18.25;18.25;;;;;20.46;58.65;101159.44;5082183;27;45424;-82
2021/09/19 11:16:32;;;;;;;;;15.50;15.00;;;;;20.49;58.63;101152.19;5080895;27;45753;-83
2021/09/19 11:19:03;;;;;;;;;19.50;16.50;;;;;20.55;58.03;101165.09;5081945;27;45422;-83
2021/09/19 11:21:33;;;;;;;;;21.75;18.50;;;;;20.54;58.00;101155.38;5067707;27;45720;-83
2021/09/19 11:24:11;;;;;;;;;19.50;16.25;;;;;20.63;58.48;101169.91;5082272;27;45361;-84
2021/09/19 11:26:54;;;;;;;;;18.00;16.00;;;;;20.64;57.98;101167.13;5081461;27;45290;-84
2021/09/19 11:29:25;;;;;;;;;20.50;16.75;;;;;20.78;58.87;101174.19;5081775;28;45497;-83
2021/09/19 11:31:53;;;;;;;;;20.25;18.50;;;;;20.84;58.05;101180.06;5079827;27;45347;-85
2021/09/19 11:34:30;;;;;;;;;22.00;19.25;;;;;20.92;58.47;101180.38;5072493;27;45558;-85
2021/09/19 11:37:01;;;;;;;;;20.25;15.75;;;;;21.02;57.82;101181.47;5077013;28;45285;-88
2021/09/19 11:39:34;;;;;;;;;25.25;20.25;;;;;21.12;57.01;101183.47;5081920;28;45432;-86
2021/09/19 11:42:06;;;;;;;;;15.00;14.25;;;;;21.09;57.38;101170.31;5081854;27;45558;-83
2021/09/19 11:44:34;;;;;;;;;17.25;16.50;;;;;21.16;56.83;101176.09;5077573;27;45300;-85
2021/09/19 11:47:03;;;;;;;;;20.25;19.50;;;;;21.20;56.41;101174.91;5080217;28;45263;-85
2021/09/19 11:49:29;;;;;;;;;19.75;16.50;;;;;21.24;56.87;101174.56;5073796;27;45545;-83
2021/09/19 11:51:54;;;;;;;;;18.00;17.25;;;;;21.29;56.41;101182.25;5081625;28;45420;-83
2021/09/19 11:54:20;;;;;;;;;18.75;16.00;;;;;21.32;55.86;101176.69;5075056;27;45623;-84
2021/09/19 11:56:47;;;;;;;;;17.25;17.00;;;;;21.39;55.47;101185.13;5074598;28;45387;-83
2021/09/19 11:59:15;;;;;;;;;17.75;14.50;;;;;21.44;55.13;101192.81;5080918;28;45376;-83
2021/09/19 12:01:42;;;;;;;;;19.50;16.75;;;;;21.42;55.68;101176.03;5080030;28;45451;-84
2021/09/19 12:04:09;;;;;;;;;16.50;15.25;;;;;21.47;55.64;101182.75;5079588;28;45522;-84
2021/09/19 12:06:36;;;;;;;;;18.75;16.25;;;;;21.48;53.59;101188.97;5070362;28;46687;-83
2021/09/19 12:09:02;;;;;;;;;15.75;14.75;;;;;21.47;54.42;101176.56;5078661;28;45434;-83
2021/09/19 12:11:46;;;;;;;;;17.00;15.00;;;;;21.45;55.13;101175.81;5080055;28;45193;-84
2021/09/19 12:14:18;;;;;;;;;19.75;17.25;;;;;21.51;55.45;101178.03;5079241;27;45837;-84
2021/09/19 12:17:03;;;;;;;;;21.25;18.25;;;;;21.53;55.70;101185.97;5066190;28;45652;-84
2021/09/19 12:19:30;;;;;;;;;14.00;11.75;;;;;21.54;54.66;101184.97;5066362;28;46431;-83
2021/09/19 12:22:01;;;;;;;;;18.25;14.50;;;;;21.56;54.19;101188.38;5070283;27;45550;-83
2021/09/19 12:24:28;;;;;;;;;18.50;16.50;;;;;21.62;54.25;101195.97;5080564;27;45487;-84
2021/09/19 12:27:14;;;;;;;;;11.75;11.75;;;;;21.63;53.58;101194.16;5091322;27;45530;-84
2021/09/19 12:29:41;;;;;;;;;20.00;16.00;;;;;21.61;53.71;101199.59;5080501;27;46243;-84
2021/09/19 12:32:29;;;;;;;;;18.50;17.00;;;;;21.56;54.12;101186.56;5069137;27;45273;-86
2021/09/19 12:35:03;;;;;;;;;17.25;17.25;;;;;21.62;53.91;101195.97;5071811;27;45358;-85
2021/09/19 12:41:15;;;;;;;;;18.75;17.50;;;;;21.65;54.79;101192.22;4905560;28;45433;-83
2021/09/19 12:43:42;;;;;;;;;16.75;15.50;;;;;21.62;54.48;101176.41;4998333;28;45735;-83
2021/09/19 12:46:14;;;;;;;;;17.50;16.50;;;;;21.63;54.93;101172.75;5030268;28;45559;-84
2021/09/19 12:48:42;;;;;;;;;18.50;17.50;;;;;21.66;55.23;101173.38;5070927;27;45548;-83
2021/09/19 12:54:40;;;;;;;;;;;;;;;;;;;;;
2021/09/19 12:57:06;;;;;;;;;18.00;16.75;;;;;21.75;55.56;101161.16;5070255;27;68063;-84
2021/09/19 13:00:22;;;;;;;;;22.75;17.75;;;;;21.78;55.03;101158.22;5079034;28;45519;-86
2021/09/19 13:03:06;;;;;;;;;18.25;15.75;;;;;21.87;54.77;101163.91;5071121;28;47260;-86
2021/09/19 13:05:37;;;;;;;;;18.00;15.50;;;;;21.99;54.84;101176.38;5080336;27;45407;-86
2021/09/19 13:08:02;;;;;;;;;24.50;22.00;;;;;21.97;54.02;101167.59;5068032;27;45444;-85
2021/09/19 13:10:32;;;;;;;;;17.00;13.50;;;;;22.01;54.60;101163.72;5075792;28;47052;-85
2021/09/19 13:13:16;;;;;;;;;;;;;;;;;;;;;
2021/09/19 13:15:46;;;;;;;;;19.25;18.50;;;;;22.17;54.49;101162.56;5079064;27;71636;-86
2021/09/19 13:18:13;;;;;;;;;13.75;13.50;;;;;22.22;53.64;101156.88;5079519;27;45242;-83
2021/09/19 13:20:38;;;;;;;;;16.25;14.50;;;;;22.30;53.39;101158.97;5075842;27;46068;-85
2021/09/19 13:23:04;;;;;;;;;18.75;16.00;;;;;22.37;53.77;101161.03;5076696;27;46974;-84